Time;durP1;ratioP1;P1;durP2;ratioP2;P2;SDS_P1;SDS_P2;PMS_P1;PMS_P2;Temp;Humidity;BMP_temperature;BMP_pressure;BME280_temperature;BME280_humidity;BME280_pressure;Samples;Min_cycle;Max_cycle;Signal;HPM_P1;HPM_P2
2022/05/14 00:00:08;;;;;;;0.00;0.00;;;19.60;83.30;;;;;;4148145;28;20137;-70
2022/05/14 00:02:30;;;;;;;0.00;0.00;;;19.60;83.20;;;;;;4148044;28;20103;-67
2022/05/14 00:04:54;;;;;;;0.00;0.00;;;19.70;83.00;;;;;;4147999;28;20062;-68
2022/05/14 00:07:19;;;;;;;0.00;0.00;;;19.70;82.90;;;;;;4148040;28;20060;-68
2022/05/14 00:09:42;;;;;;;0.00;0.00;;;19.80;82.70;;;;;;4134357;28;20438;-66
2022/05/14 00:14:49;;;;;;;0.00;0.00;;;19.80;82.80;;;;;;4148737;28;20357;-69
2022/05/14 00:17:25;;;;;;;0.00;0.00;;;19.80;82.80;;;;;;4148685;28;20050;-68
2022/05/14 00:19:52;;;;;;;0.00;0.00;;;19.80;82.60;;;;;;4148687;28;20698;-68
2022/05/14 00:22:15;;;;;;;0.00;0.00;;;19.80;82.70;;;;;;4134352;28;20054;-68
2022/05/14 00:24:49;;;;;;;0.00;0.00;;;19.80;82.70;;;;;;4148688;28;20061;-67
2022/05/14 00:27:16;;;;;;;0.00;0.00;;;19.80;82.80;;;;;;4147738;28;20046;-71
2022/05/14 00:29:39;;;;;;;0.00;0.00;;;19.80;83.00;;;;;;4148705;28;20058;-73
2022/05/14 00:32:06;;;;;;;0.00;0.00;;;19.80;83.10;;;;;;4148446;28;20058;-71
2022/05/14 00:34:29;;;;;;;0.00;0.00;;;19.80;83.20;;;;;;4134193;28;20103;-68
2022/05/14 00:37:00;;;;;;;0.00;0.00;;;19.80;83.30;;;;;;4147667;28;20149;-68
2022/05/14 00:39:34;;;;;;;0.00;0.00;;;19.80;83.30;;;;;;4147633;28;20052;-69
2022/05/14 00:42:02;;;;;;;0.00;0.00;;;19.90;83.20;;;;;;4148566;28;20056;-68
2022/05/14 00:44:24;;;;;;;0.00;0.00;;;19.80;83.00;;;;;;4134014;28;20101;-69
2022/05/14 00:47:07;;;;;;;0.00;0.00;;;19.80;82.80;;;;;;4147733;28;20072;-67
2022/05/14 00:49:32;;;;;;;0.00;0.00;;;19.80;82.80;;;;;;4134644;28;20505;-67
2022/05/14 00:52:06;;;;;;;0.00;0.00;;;19.70;82.80;;;;;;4150903;28;20465;-68
2022/05/14 00:54:52;;;;;;;0.00;0.00;;;19.80;82.70;;;;;;4150873;28;20062;-70
2022/05/14 00:57:25;;;;;;;0.00;0.00;;;19.80;83.10;;;;;;4150854;28;20414;-69
2022/05/14 00:59:51;;;;;;;0.00;0.00;;;19.80;83.00;;;;;;4150523;28;20092;-69
2022/05/14 01:02:17;;;;;;;0.00;0.00;;;19.80;82.60;;;;;;4150718;28;20049;-68
2022/05/14 01:04:48;;;;;;;0.00;0.00;;;19.70;83.20;;;;;;4150829;28;20062;-68
2022/05/14 01:07:19;;;;;;;0.00;0.00;;;19.70;82.60;;;;;;4150625;28;20042;-70
2022/05/14 01:09:52;;;;;;;0.00;0.00;;;19.80;82.70;;;;;;4150847;28;20408;-70
2022/05/14 01:12:21;;;;;;;0.00;0.00;;;19.80;82.70;;;;;;4150483;28;20058;-70
2022/05/14 01:14:51;;;;;;;0.00;0.00;;;19.80;82.80;;;;;;4150494;28;20053;-70
2022/05/14 01:17:22;;;;;;;0.00;0.00;;;19.70;82.80;;;;;;4137965;28;20058;-69
2022/05/14 01:20:03;;;;;;;0.00;0.00;;;19.70;82.90;;;;;;4125411;28;20112;-70
2022/05/14 01:23:01;;;;;;;0.00;0.00;;;19.70;83.00;;;;;;4124236;28;20110;-71
2022/05/14 01:28:39;;;;;;;0.00;0.00;;;19.70;83.20;;;;;;4123443;28;20488;-70
2022/05/14 01:31:13;;;;;;;0.00;0.00;;;19.70;83.10;;;;;;4150336;28;20120;-67
2022/05/14 01:33:36;;;;;;;0.00;0.00;;;19.70;83.20;;;;;;4150534;28;20057;-70
2022/05/14 01:36:02;;;;;;;0.00;0.00;;;19.70;83.30;;;;;;4150277;28;20046;-71
2022/05/14 01:38:27;;;;;;;0.00;0.00;;;19.70;83.40;;;;;;4122800;28;20046;-70
2022/05/14 01:40:52;;;;;;;0.00;0.00;;;19.80;83.60;;;;;;4136474;28;20039;-68
2022/05/14 01:43:14;;;;;;;0.00;0.00;;;19.80;83.50;;;;;;4150029;28;20046;-69
2022/05/14 01:45:37;;;;;;;0.00;0.00;;;19.80;83.40;;;;;;4149964;28;20056;-68
2022/05/14 01:47:59;;;;;;;0.00;0.00;;;19.80;83.10;;;;;;4149758;28;20124;-68
2022/05/14 01:50:25;;;;;;;0.00;0.00;;;19.80;82.70;;;;;;4136661;28;20050;-70
2022/05/14 01:52:47;;;;;;;0.00;0.00;;;19.70;82.60;;;;;;4150235;28;20050;-66
2022/05/14 01:55:12;;;;;;;0.00;0.00;;;19.70;82.80;;;;;;4150250;28;20050;-72
2022/05/14 01:57:37;;;;;;;0.00;0.00;;;19.60;82.90;;;;;;4122525;28;20047;-67
2022/05/14 01:59:59;;;;;;;0.00;0.00;;;19.60;83.00;;;;;;4136133;28;20515;-68
2022/05/14 02:02:23;;;;;;;0.00;0.00;;;19.60;83.20;;;;;;4149105;28;20394;-67
2022/05/14 02:04:48;;;;;;;0.00;0.00;;;19.60;83.20;;;;;;4149955;28;20049;-69
2022/05/14 02:07:13;;;;;;;0.00;0.00;;;19.60;83.30;;;;;;4150036;28;20061;-69
2022/05/14 02:09:35;;;;;;;0.00;0.00;;;19.60;83.30;;;;;;4136388;28;20515;-67
2022/05/14 02:12:16;;;;;;;0.00;0.00;;;19.50;83.30;;;;;;4136017;28;20058;-69
2022/05/14 02:14:38;;;;;;;0.00;0.00;;;19.40;83.40;;;;;;4149951;28;20479;-68
2022/05/14 02:17:04;;;;;;;0.00;0.00;;;19.30;83.40;;;;;;4136254;28;20731;-70
2022/05/14 02:19:27;;;;;;;0.00;0.00;;;19.40;83.50;;;;;;4135895;28;20046;-71
2022/05/14 02:21:52;;;;;;;0.00;0.00;;;19.30;83.40;;;;;;4149848;28;20532;-69
2022/05/14 02:24:17;;;;;;;0.00;0.00;;;19.40;83.30;;;;;;4136023;28;20377;-68
2022/05/14 02:26:42;;;;;;;0.00;0.00;;;19.30;83.20;;;;;;4122254;28;20051;-70
2022/05/14 02:29:07;;;;;;;0.00;0.00;;;19.30;83.50;;;;;;4149468;28;20163;-67
2022/05/14 02:31:31;;;;;;;0.00;0.00;;;19.30;83.70;;;;;;4149567;28;20092;-68
2022/05/14 02:33:54;;;;;;;0.00;0.00;;;19.30;83.60;;;;;;4135841;28;20038;-69
2022/05/14 02:36:19;;;;;;;0.00;0.00;;;19.30;83.30;;;;;;4135603;28;20058;-69
2022/05/14 02:38:41;;;;;;;0.00;0.00;;;19.30;83.10;;;;;;4149248;28;20112;-70
2022/05/14 02:41:05;;;;;;;0.00;0.00;;;19.20;83.00;;;;;;4149188;28;20049;-70
2022/05/14 02:43:32;;;;;;;0.00;0.00;;;19.20;83.00;;;;;;4122238;28;20051;-72
2022/05/14 02:46:05;;;;;;;0.00;0.00;;;19.20;83.10;;;;;;4135484;28;20050;-67
2022/05/14 02:48:27;;;;;;;0.00;0.00;;;19.20;83.00;;;;;;4132590;28;20055;-67
2022/05/14 02:50:55;;;;;;;0.00;0.00;;;19.00;83.40;;;;;;4146830;28;20046;-69
2022/05/14 02:53:17;;;;;;;0.00;0.00;;;19.10;83.60;;;;;;4119378;28;20054;-70
2022/05/14 02:55:42;;;;;;;0.00;0.00;;;19.10;83.70;;;;;;4133121;28;20129;-67
2022/05/14 02:58:06;;;;;;;0.00;0.00;;;19.00;84.00;;;;;;4146388;28;20141;-68
2022/05/14 03:00:29;;;;;;;0.00;0.00;;;18.90;84.20;;;;;;4146227;28;20049;-69
2022/05/14 03:02:56;;;;;;;0.00;0.00;;;18.90;84.60;;;;;;4146280;28;20116;-68
2022/05/14 03:05:22;;;;;;;0.00;0.00;;;18.80;84.70;;;;;;4119120;28;20076;-70
2022/05/14 03:07:45;;;;;;;0.00;0.00;;;18.70;85.20;;;;;;4119148;28;20039;-68
2022/05/14 03:10:12;;;;;;;0.00;0.00;;;18.50;86.00;;;;;;4106167;28;20050;-69
2022/05/14 03:12:34;;;;;;;0.00;0.00;;;18.50;86.10;;;;;;4132480;28;20113;-70
2022/05/14 03:14:57;;;;;;;0.00;0.00;;;18.50;86.00;;;;;;4132476;28;20088;-68
2022/05/14 03:17:21;;;;;;;0.00;0.00;;;18.60;86.00;;;;;;4132409;28;20047;-71
2022/05/14 03:19:46;;;;;;;0.00;0.00;;;18.70;85.90;;;;;;4146088;28;20073;-74
2022/05/14 03:22:09;;;;;;;0.00;0.00;;;18.70;86.20;;;;;;4132557;28;20121;-70
2022/05/14 03:24:31;;;;;;;0.00;0.00;;;18.60;86.00;;;;;;4119066;28;20055;-70
2022/05/14 03:26:56;;;;;;;0.00;0.00;;;18.60;86.70;;;;;;4132539;28;20362;-70
2022/05/14 03:29:21;;;;;;;0.00;0.00;;;18.40;87.70;;;;;;4132438;28;20365;-68
2022/05/14 03:31:43;;;;;;;0.00;0.00;;;18.50;88.20;;;;;;4145918;28;20068;-67
2022/05/14 03:34:07;;;;;;;0.00;0.00;;;18.60;88.30;;;;;;4145970;28;20092;-66
2022/05/14 03:36:33;;;;;;;0.00;0.00;;;18.60;88.20;;;;;;4132533;28;20057;-69
2022/05/14 03:38:58;;;;;;;0.00;0.00;;;18.50;88.70;;;;;;4132275;28;20061;-67
2022/05/14 03:41:22;;;;;;;0.00;0.00;;;18.50;89.30;;;;;;4132138;28;20044;-69
2022/05/14 03:43:44;;;;;;;0.00;0.00;;;18.40;89.40;;;;;;4132015;28;20085;-66
2022/05/14 03:46:11;;;;;;;0.00;0.00;;;18.50;89.30;;;;;;4131963;28;20504;-69
2022/05/14 03:48:33;;;;;;;0.00;0.00;;;18.60;89.40;;;;;;4131760;28;20054;-68
2022/05/14 03:50:56;;;;;;;0.00;0.00;;;18.50;89.30;;;;;;4118698;28;20516;-70
2022/05/14 03:53:19;;;;;;;0.00;0.00;;;18.50;89.10;;;;;;4132253;28;20047;-69
2022/05/14 03:55:45;;;;;;;0.00;0.00;;;18.50;89.30;;;;;;4131954;28;20141;-70
2022/05/14 03:58:07;;;;;;;0.00;0.00;;;18.40;89.70;;;;;;4132417;28;20041;-71
2022/05/14 04:00:29;;;;;;;0.00;0.00;;;18.30;90.00;;;;;;4145635;28;20456;-68
2022/05/14 04:02:53;;;;;;;0.00;0.00;;;18.20;90.10;;;;;;4132437;28;20041;-68
2022/05/14 04:05:17;;;;;;;0.00;0.00;;;18.20;90.20;;;;;;4145453;28;20053;-68
2022/05/14 04:07:47;;;;;;;0.00;0.00;;;18.20;90.20;;;;;;4131814;28;20038;-69
2022/05/14 04:10:16;;;;;;;0.00;0.00;;;18.30;90.10;;;;;;4132041;28;20465;-72
2022/05/14 04:12:42;;;;;;;0.00;0.00;;;18.20;90.20;;;;;;4131888;28;20881;-70
2022/05/14 04:15:06;;;;;;;0.00;0.00;;;18.10;90.20;;;;;;4131839;28;20046;-69
2022/05/14 04:17:32;;;;;;;0.00;0.00;;;18.20;90.20;;;;;;4132296;28;20170;-68
2022/05/14 04:19:55;;;;;;;0.00;0.00;;;18.20;90.20;;;;;;4118645;28;20378;-70
2022/05/14 04:22:17;;;;;;;0.00;0.00;;;18.30;90.10;;;;;;4131994;28;20159;-67
2022/05/14 04:24:42;;;;;;;0.00;0.00;;;18.40;90.00;;;;;;4133061;28;20418;-68
2022/05/14 04:27:05;;;;;;;0.00;0.00;;;18.40;89.60;;;;;;4135435;28;20812;-72
2022/05/14 04:29:27;;;;;;;0.00;0.00;;;18.50;89.20;;;;;;4121370;28;20093;-72
2022/05/14 04:31:52;;;;;;;0.00;0.00;;;18.50;88.80;;;;;;4148943;28;20488;-68
2022/05/14 04:34:14;;;;;;;0.00;0.00;;;18.20;88.90;;;;;;4135170;28;20149;-68
2022/05/14 04:36:39;;;;;;;0.00;0.00;;;18.30;89.00;;;;;;4134985;28;20169;-71
2022/05/14 04:39:03;;;;;;;0.00;0.00;;;18.20;89.10;;;;;;4135176;28;20058;-68
2022/05/14 04:41:30;;;;;;;0.00;0.00;;;18.20;89.20;;;;;;4134902;28;20057;-68
2022/05/14 04:43:54;;;;;;;0.00;0.00;;;18.30;89.10;;;;;;4135055;28;20564;-67
2022/05/14 04:46:18;;;;;;;0.00;0.00;;;18.20;89.10;;;;;;4148526;28;20085;-68
2022/05/14 04:48:40;;;;;;;0.00;0.00;;;18.20;89.10;;;;;;4134807;28;20058;-71
2022/05/14 04:51:10;;;;;;;0.00;0.00;;;18.30;89.00;;;;;;4148577;28;20081;-70
2022/05/14 04:53:35;;;;;;;0.00;0.00;;;18.40;89.00;;;;;;4134615;28;20161;-70
2022/05/14 04:55:57;;;;;;;0.00;0.00;;;18.40;88.80;;;;;;4135018;28;20050;-68
2022/05/14 04:58:21;;;;;;;0.00;0.00;;;18.50;88.70;;;;;;4148501;28;20506;-69
2022/05/14 05:00:45;;;;;;;0.00;0.00;;;18.50;88.80;;;;;;4134632;28;20097;-69
2022/05/14 05:03:19;;;;;;;0.00;0.00;;;18.50;88.80;;;;;;4148191;28;20120;-72
2022/05/14 05:05:49;;;;;;;0.00;0.00;;;18.50;88.80;;;;;;4134684;28;20050;-68
2022/05/14 05:08:12;;;;;;;0.00;0.00;;;18.40;89.00;;;;;;4121050;28;20129;-70
2022/05/14 05:10:37;;;;;;;0.00;0.00;;;18.30;89.30;;;;;;4134788;28;20058;-66
2022/05/14 05:12:59;;;;;;;0.00;0.00;;;18.40;89.40;;;;;;4134836;28;20049;-64
2022/05/14 05:15:21;;;;;;;0.00;0.00;;;18.40;89.40;;;;;;4148124;28;20054;-66
2022/05/14 05:17:43;;;;;;;0.00;0.00;;;18.40;89.40;;;;;;4148192;28;20511;-65
2022/05/14 05:20:05;;;;;;;0.00;0.00;;;18.40;89.50;;;;;;4147989;28;20050;-65
2022/05/14 05:22:28;;;;;;;0.00;0.00;;;18.30;89.50;;;;;;4121093;28;20050;-65
2022/05/14 05:24:52;;;;;;;0.00;0.00;;;18.30;89.40;;;;;;4134368;28;20593;-64
2022/05/14 05:27:16;;;;;;;0.00;0.00;;;18.30;89.30;;;;;;4134531;28;20053;-64
2022/05/14 05:29:45;;;;;;;0.00;0.00;;;18.40;89.20;;;;;;4147749;28;20050;-65
2022/05/14 05:32:10;;;;;;;0.00;0.00;;;18.50;88.90;;;;;;4147724;28;20129;-65
2022/05/14 05:34:32;;;;;;;0.00;0.00;;;18.50;88.60;;;;;;4147708;28;20132;-66
2022/05/14 05:36:54;;;;;;;0.00;0.00;;;18.60;88.40;;;;;;4132750;28;20050;-64
2022/05/14 05:39:19;;;;;;;0.00;0.00;;;18.60;88.10;;;;;;4134183;28;20094;-67
2022/05/14 05:41:43;;;;;;;0.00;0.00;;;18.70;88.10;;;;;;4134413;28;20104;-65
2022/05/14 05:44:07;;;;;;;0.00;0.00;;;18.70;88.00;;;;;;4147594;28;20056;-64
2022/05/14 05:46:33;;;;;;;0.00;0.00;;;18.60;88.30;;;;;;4147380;28;20077;-64
2022/05/14 05:48:55;;;;;;;0.00;0.00;;;18.70;88.50;;;;;;4133512;28;20221;-64
2022/05/14 05:51:17;;;;;;;0.00;0.00;;;18.80;88.50;;;;;;4133925;28;20049;-65
2022/05/14 05:59:05;;;;;;;0.00;0.00;;;18.90;87.30;;;;;;4147300;28;20042;-65
2022/05/14 06:01:27;;;;;;;0.00;0.00;;;18.70;87.90;;;;;;4147515;28;20046;-64
2022/05/14 06:03:51;;;;;;;0.00;0.00;;;18.70;88.40;;;;;;4133914;28;20097;-64
2022/05/14 06:06:15;;;;;;;0.00;0.00;;;18.80;88.30;;;;;;4146975;28;20124;-65
2022/05/14 06:08:37;;;;;;;0.00;0.00;;;18.80;87.80;;;;;;4151279;28;20073;-66
2022/05/14 06:11:02;;;;;;;0.00;0.00;;;18.90;87.90;;;;;;4137278;28;20037;-66
2022/05/14 06:13:23;;;;;;;0.00;0.00;;;18.80;87.70;;;;;;4132299;28;20070;-65
2022/05/14 06:15:48;;;;;;;0.00;0.00;;;18.90;87.80;;;;;;4132199;28;20050;-65
2022/05/14 06:18:11;;;;;;;0.00;0.00;;;18.90;88.10;;;;;;4160437;28;20326;-64
2022/05/14 06:20:39;;;;;;;0.00;0.00;;;18.90;87.80;;;;;;4148358;28;20092;-65
2022/05/14 06:23:01;;;;;;;0.00;0.00;;;18.90;87.80;;;;;;4148391;28;20108;-66
2022/05/14 06:25:23;;;;;;;0.00;0.00;;;19.00;87.70;;;;;;4144825;28;20054;-65
2022/05/14 06:27:48;;;;;;;0.00;0.00;;;19.10;87.60;;;;;;4132377;28;20520;-64
2022/05/14 06:30:10;;;;;;;0.00;0.00;;;19.10;87.60;;;;;;4145560;28;20053;-64
2022/05/14 06:32:32;;;;;;;0.00;0.00;;;19.10;87.50;;;;;;4145679;28;20447;-65
2022/05/14 06:34:59;;;;;;;0.00;0.00;;;19.00;87.30;;;;;;4131878;28;20046;-65
2022/05/14 06:37:24;;;;;;;0.00;0.00;;;19.20;87.50;;;;;;4132096;28;20366;-65
2022/05/14 06:39:45;;;;;;;0.00;0.00;;;19.20;87.00;;;;;;4131929;28;20053;-66
2022/05/14 06:42:08;;;;;;;0.00;0.00;;;19.30;86.70;;;;;;4132646;28;20508;-65
2022/05/14 06:44:31;;;;;;;0.00;0.00;;;19.30;87.00;;;;;;4121103;28;20047;-65
2022/05/14 06:46:57;;;;;;;0.00;0.00;;;19.40;86.70;;;;;;4147393;28;20054;-66
2022/05/14 06:49:31;;;;;;;0.00;0.00;;;19.40;86.70;;;;;;4149123;28;20495;-65
2022/05/14 06:51:59;;;;;;;0.00;0.00;;;19.50;86.30;;;;;;4148111;28;20129;-67
2022/05/14 06:54:21;;;;;;;0.00;0.00;;;19.70;86.30;;;;;;4162207;28;20045;-68
2022/05/14 06:56:44;;;;;;;0.00;0.00;;;19.90;85.80;;;;;;4162569;28;20045;-65
2022/05/14 06:59:09;;;;;;;0.00;0.00;;;20.00;85.50;;;;;;4148775;28;20052;-67
2022/05/14 07:01:36;;;;;;;0.00;0.00;;;19.90;84.90;;;;;;4149566;28;20046;-66
2022/05/14 07:06:44;;;;;;;0.00;0.00;;;20.00;85.90;;;;;;4148872;28;20042;-64
2022/05/14 07:09:09;;;;;;;0.00;0.00;;;20.30;85.10;;;;;;4135345;28;20457;-67
2022/05/14 07:11:34;;;;;;;0.00;0.00;;;20.40;84.10;;;;;;4148939;28;20060;-66
2022/05/14 07:13:59;;;;;;;0.00;0.00;;;20.20;83.30;;;;;;4148717;28;20049;-65
2022/05/14 07:16:21;;;;;;;0.00;0.00;;;20.00;84.10;;;;;;4148862;28;20480;-64
2022/05/14 07:18:43;;;;;;;0.00;0.00;;;20.20;84.20;;;;;;4148042;28;20157;-64
2022/05/14 07:21:05;;;;;;;0.00;0.00;;;20.40;83.40;;;;;;4148487;28;20099;-67
2022/05/14 07:23:29;;;;;;;0.00;0.00;;;20.40;83.50;;;;;;4135357;28;20042;-64
2022/05/14 07:25:54;;;;;;;0.00;0.00;;;20.50;82.80;;;;;;4149100;28;20538;-66
2022/05/14 07:28:19;;;;;;;0.00;0.00;;;20.80;82.40;;;;;;4135425;28;20057;-65
2022/05/14 07:30:43;;;;;;;0.00;0.00;;;21.00;81.30;;;;;;4135569;28;20386;-64
2022/05/14 07:33:08;;;;;;;0.00;0.00;;;20.80;80.70;;;;;;4135104;28;20113;-64
2022/05/14 07:35:34;;;;;;;0.00;0.00;;;20.60;81.30;;;;;;4149010;28;20057;-65
2022/05/14 07:37:58;;;;;;;0.00;0.00;;;20.80;81.00;;;;;;4149020;28;20097;-66
2022/05/14 07:40:25;;;;;;;0.00;0.00;;;21.00;80.60;;;;;;4148895;28;20045;-65
2022/05/14 07:42:56;;;;;;;0.00;0.00;;;21.20;80.60;;;;;;4148689;28;20073;-66
2022/05/14 07:45:38;;;;;;;0.00;0.00;;;21.30;80.80;;;;;;4148948;28;20073;-67
2022/05/14 07:48:04;;;;;;;0.00;0.00;;;21.40;81.10;;;;;;4150297;28;20046;-66
2022/05/14 07:50:29;;;;;;;0.00;0.00;;;21.60;79.90;;;;;;4151260;28;20062;-64
2022/05/14 07:52:53;;;;;;;0.00;0.00;;;21.70;80.00;;;;;;4165006;28;20132;-65
2022/05/14 07:55:15;;;;;;;0.00;0.00;;;21.80;79.00;;;;;;4151056;28;20092;-66
2022/05/14 07:57:38;;;;;;;0.00;0.00;;;21.80;78.70;;;;;;4151107;28;20050;-64
2022/05/14 08:00:04;;;;;;;0.00;0.00;;;21.90;79.10;;;;;;4150702;28;20083;-66
2022/05/14 08:02:34;;;;;;;0.00;0.00;;;21.80;79.20;;;;;;4152154;28;20048;-65
2022/05/14 08:05:01;;;;;;;0.00;0.00;;;21.60;79.60;;;;;;4137498;28;20066;-66
2022/05/14 08:07:29;;;;;;;0.00;0.00;;;21.50;79.90;;;;;;4151269;28;20127;-65
2022/05/14 08:09:54;;;;;;;0.00;0.00;;;21.20;80.30;;;;;;4151267;28;20443;-71
2022/05/14 08:12:22;;;;;;;0.00;0.00;;;21.20;81.50;;;;;;4150715;28;20100;-66
2022/05/14 08:14:46;;;;;;;0.00;0.00;;;21.60;81.70;;;;;;4151154;28;20485;-65
2022/05/14 08:17:10;;;;;;;0.00;0.00;;;21.80;81.10;;;;;;4150844;28;20050;-66
2022/05/14 08:19:36;;;;;;;0.00;0.00;;;22.00;80.50;;;;;;4164551;28;20128;-65
2022/05/14 08:24:43;;;;;;;0.00;0.00;;;22.40;78.70;;;;;;4150894;28;20096;-65
2022/05/14 08:27:09;;;;;;;0.00;0.00;;;22.30;78.60;;;;;;4137596;28;20112;-66
2022/05/14 08:29:38;;;;;;;0.00;0.00;;;22.50;78.90;;;;;;4151186;28;20053;-66
2022/05/14 08:32:00;;;;;;;0.00;0.00;;;22.70;78.30;;;;;;4150791;28;20045;-64
2022/05/14 08:34:22;;;;;;;0.00;0.00;;;22.60;78.60;;;;;;4150911;28;20442;-65
2022/05/14 08:36:47;;;;;;;0.00;0.00;;;22.40;78.50;;;;;;4137149;28;20054;-65
2022/05/14 08:39:13;;;;;;;0.00;0.00;;;22.20;78.80;;;;;;4137477;28;20096;-65
2022/05/14 08:41:43;;;;;;;0.00;0.00;;;22.20;78.20;;;;;;4136823;28;20486;-63
2022/05/14 08:44:15;;;;;;;0.00;0.00;;;22.30;78.20;;;;;;4137264;28;20049;-64
2022/05/14 08:46:43;;;;;;;0.00;0.00;;;22.40;77.90;;;;;;4150604;28;20046;-64
2022/05/14 08:49:20;;;;;;;0.00;0.00;;;22.40;77.50;;;;;;4136708;28;20050;-65
2022/05/14 08:51:48;;;;;;;0.00;0.00;;;22.50;77.80;;;;;;4150913;28;20050;-64
2022/05/14 08:54:10;;;;;;;0.00;0.00;;;22.40;78.00;;;;;;4150782;28;20491;-66
2022/05/14 08:56:43;;;;;;;0.00;0.00;;;22.50;77.20;;;;;;4150918;28;20092;-65
2022/05/14 08:59:23;;;;;;;0.00;0.00;;;22.50;76.70;;;;;;4137785;28;20128;-65
2022/05/14 09:01:48;;;;;;;0.00;0.00;;;22.60;77.10;;;;;;4150659;28;20048;-63
2022/05/14 09:04:17;;;;;;;0.00;0.00;;;22.50;77.30;;;;;;4150693;28;20085;-65
2022/05/14 09:06:41;;;;;;;0.00;0.00;;;22.50;77.40;;;;;;4150910;28;20483;-64
2022/05/14 09:09:03;;;;;;;0.00;0.00;;;22.60;76.40;;;;;;4150584;28;20050;-64
2022/05/14 09:11:41;;;;;;;0.00;0.00;;;22.40;77.20;;;;;;4153070;28;20472;-65
2022/05/14 09:14:21;;;;;;;0.00;0.00;;;22.40;77.50;;;;;;4153704;28;20400;-64
2022/05/14 09:16:50;;;;;;;0.00;0.00;;;22.60;76.50;;;;;;4154192;28;20140;-64
2022/05/14 09:19:18;;;;;;;0.00;0.00;;;22.40;76.30;;;;;;4153332;28;20132;-65
2022/05/14 09:21:50;;;;;;;0.00;0.00;;;22.30;78.10;;;;;;4153444;28;20045;-64
2022/05/14 09:24:20;;;;;;;0.00;0.00;;;22.60;77.50;;;;;;4153960;28;20141;-65
2022/05/14 09:26:47;;;;;;;0.00;0.00;;;22.70;77.30;;;;;;4153488;28;20054;-65
2022/05/14 09:29:31;;;;;;;0.00;0.00;;;22.70;77.40;;;;;;4139896;28;20105;-65
2022/05/14 09:31:53;;;;;;;0.00;0.00;;;22.70;76.40;;;;;;4153130;28;20101;-64
2022/05/14 09:34:19;;;;;;;0.00;0.00;;;22.80;76.40;;;;;;4153257;28;20080;-64
2022/05/14 09:36:53;;;;;;;0.00;0.00;;;22.80;76.00;;;;;;4139484;28;20054;-64
2022/05/14 09:39:17;;;;;;;0.00;0.00;;;22.80;75.90;;;;;;4139464;28;20055;-64
2022/05/14 09:41:45;;;;;;;0.00;0.00;;;23.00;76.10;;;;;;4153191;28;20089;-65
2022/05/14 09:44:22;;;;;;;0.00;0.00;;;23.00;76.00;;;;;;4153111;28;20042;-64
2022/05/14 09:46:44;;;;;;;0.00;0.00;;;23.10;75.40;;;;;;4153379;28;20038;-64
2022/05/14 09:49:17;;;;;;;0.00;0.00;;;22.80;74.90;;;;;;4136957;28;20058;-65
2022/05/14 09:51:46;;;;;;;0.00;0.00;;;22.70;75.90;;;;;;4150765;28;20046;-64
2022/05/14 09:54:21;;;;;;;0.00;0.00;;;22.60;76.00;;;;;;4150768;28;20464;-64
2022/05/14 09:57:01;;;;;;;0.00;0.00;;;22.70;76.20;;;;;;4150827;28;20054;-64
2022/05/14 09:59:35;;;;;;;0.00;0.00;;;22.80;76.40;;;;;;4151041;28;20491;-66
2022/05/14 10:02:49;;;;;;;0.00;0.00;;;23.00;76.10;;;;;;4150470;28;20154;-65
2022/05/14 10:05:33;;;;;;;0.00;0.00;;;23.20;75.10;;;;;;4150372;28;20392;-65
2022/05/14 10:08:00;;;;;;;0.00;0.00;;;23.40;75.10;;;;;;4164262;28;20045;-65
2022/05/14 10:10:49;;;;;;;0.00;0.00;;;23.70;75.10;;;;;;4150022;28;20070;-64
2022/05/14 10:13:32;;;;;;;0.00;0.00;;;23.50;73.70;;;;;;4136599;28;20215;-65
2022/05/14 10:16:10;;;;;;;0.00;0.00;;;23.30;75.70;;;;;;4150150;28;20084;-66
2022/05/14 10:18:52;;;;;;;0.00;0.00;;;23.50;74.70;;;;;;4123491;28;20050;-64
2022/05/14 10:21:36;;;;;;;0.00;0.00;;;23.50;75.60;;;;;;4136990;28;20046;-64
2022/05/14 10:27:13;;;;;;;0.00;0.00;;;23.80;75.10;;;;;;4150047;28;20144;-65
2022/05/14 10:29:44;;;;;;;0.00;0.00;;;24.00;74.50;;;;;;4150191;28;20037;-64
2022/05/14 10:32:11;;;;;;;0.00;0.00;;;24.00;74.80;;;;;;4150389;28;20346;-64
2022/05/14 10:34:40;;;;;;;0.00;0.00;;;24.20;74.20;;;;;;4163838;28;20423;-64
2022/05/14 10:37:07;;;;;;;0.00;0.00;;;24.10;73.90;;;;;;4136347;28;20117;-65
2022/05/14 10:39:53;;;;;;;0.00;0.00;;;24.10;73.30;;;;;;4149794;28;20089;-63
2022/05/14 10:42:32;;;;;;;0.00;0.00;;;23.80;73.80;;;;;;4149587;28;20054;-65
2022/05/14 10:45:03;;;;;;;0.00;0.00;;;23.80;74.50;;;;;;4136136;28;20064;-66
2022/05/14 10:47:26;;;;;;;;;;;24.00;74.60;;;;;;4149977;28;20044;-64
2022/05/14 10:50:17;;;;;;;0.00;0.00;;;24.20;74.00;;;;;;4135890;28;19933;-64
2022/05/14 10:52:43;;;;;;;0.00;0.00;;;24.20;74.20;;;;;;4149280;28;20128;-64
2022/05/14 10:55:44;;;;;;;0.00;0.00;;;24.30;74.00;;;;;;4149579;28;20045;-65
2022/05/14 10:58:07;;;;;;;0.00;0.00;;;24.50;74.30;;;;;;4103093;28;20061;-65
2022/05/14 11:00:45;;;;;;;0.00;0.00;;;24.40;73.90;;;;;;4148129;28;20045;-65
2022/05/14 11:03:13;;;;;;;0.00;0.00;;;24.40;73.80;;;;;;4149596;28;20384;-64
2022/05/14 11:06:02;;;;;;;0.00;0.00;;;24.50;73.10;;;;;;4149266;28;20048;-63
2022/05/14 11:08:45;;;;;;;0.00;0.00;;;24.40;73.20;;;;;;4149513;28;20046;-65
2022/05/14 11:11:15;;;;;;;0.00;0.00;;;24.50;72.70;;;;;;4149133;28;20057;-63
2022/05/14 11:13:43;;;;;;;0.00;0.00;;;24.60;72.40;;;;;;4149338;28;20427;-67
2022/05/14 11:16:12;;;;;;;0.00;0.00;;;24.60;72.70;;;;;;4136163;28;20045;-65
2022/05/14 11:18:46;;;;;;;0.00;0.00;;;24.60;72.40;;;;;;4149212;28;20523;-65
2022/05/14 11:21:09;;;;;;;0.00;0.00;;;24.50;72.50;;;;;;4148799;28;20064;-64
2022/05/14 11:23:34;;;;;;;0.00;0.00;;;24.40;73.70;;;;;;4148916;28;20092;-66
2022/05/14 11:26:07;;;;;;;0.00;0.00;;;24.50;73.80;;;;;;4149097;28;20097;-65
2022/05/14 11:28:31;;;;;;;0.00;0.00;;;24.20;73.40;;;;;;4162749;28;20052;-63
2022/05/14 11:31:14;;;;;;;0.00;0.00;;;24.40;73.80;;;;;;4148766;28;20068;-64
2022/05/14 11:33:41;;;;;;;0.00;0.00;;;24.40;72.60;;;;;;4148896;28;20084;-64
2022/05/14 11:36:12;;;;;;;0.00;0.00;;;24.40;72.10;;;;;;4135216;28;20045;-64
2022/05/14 11:38:43;;;;;;;0.00;0.00;;;24.40;72.40;;;;;;4148858;28;20041;-63
2022/05/14 11:41:10;;;;;;;0.00;0.00;;;24.50;72.90;;;;;;4148860;28;20092;-65
2022/05/14 11:43:53;;;;;;;0.00;0.00;;;24.40;72.90;;;;;;4162575;28;20037;-65
2022/05/14 11:46:29;;;;;;;0.00;0.00;;;24.30;73.00;;;;;;4148774;28;20510;-64
2022/05/14 11:49:04;;;;;;;0.00;0.00;;;24.20;72.50;;;;;;4148478;28;20049;-64
2022/05/14 11:51:33;;;;;;;0.00;0.00;;;24.40;73.40;;;;;;4148675;28;20050;-65
2022/05/14 11:54:07;;;;;;;0.00;0.00;;;24.60;72.60;;;;;;4148700;28;20081;-64
2022/05/14 11:56:40;;;;;;;0.00;0.00;;;24.90;71.70;;;;;;4135681;28;20042;-64
2022/05/14 11:59:23;;;;;;;0.00;0.00;;;24.90;70.30;;;;;;4148509;28;20197;-64
2022/05/14 12:01:47;;;;;;;0.00;0.00;;;25.00;70.00;;;;;;4121260;28;20046;-65
2022/05/14 12:04:15;;;;;;;0.00;0.00;;;25.00;69.40;;;;;;4148522;28;20284;-66
2022/05/14 12:06:49;;;;;;;0.00;0.00;;;25.10;68.70;;;;;;4148635;28;20053;-63
2022/05/14 12:09:23;;;;;;;0.00;0.00;;;25.00;70.10;;;;;;4148563;28;20481;-64
2022/05/14 12:12:04;;;;;;;0.00;0.00;;;25.10;69.80;;;;;;4148514;28;20109;-64
2022/05/14 12:14:34;;;;;;;0.00;0.00;;;24.90;69.10;;;;;;4148653;28;20120;-65
2022/05/14 12:17:01;;;;;;;0.00;0.00;;;25.00;69.20;;;;;;4148517;28;20054;-64
2022/05/14 12:19:33;;;;;;;0.00;0.00;;;25.10;69.20;;;;;;4148693;28;20203;-65
2022/05/14 12:22:08;;;;;;;0.00;0.00;;;25.10;69.80;;;;;;4148510;28;20042;-65
2022/05/14 12:24:36;;;;;;;0.00;0.00;;;24.80;69.60;;;;;;4148807;28;20440;-65
2022/05/14 12:27:01;;;;;;;0.00;0.00;;;24.80;71.30;;;;;;4135013;28;20046;-64
2022/05/14 12:29:25;;;;;;;0.00;0.00;;;25.00;71.60;;;;;;4148374;28;20057;-65
2022/05/14 12:34:41;;;;;;;0.00;0.00;;;25.10;67.10;;;;;;4148539;28;20053;-65
2022/05/14 12:37:17;;;;;;;0.00;0.00;;;25.10;66.20;;;;;;4148759;28;20372;-65
2022/05/14 12:39:45;;;;;;;0.00;0.00;;;25.30;65.70;;;;;;4148234;28;20463;-64
2022/05/14 12:42:12;;;;;;;0.00;0.00;;;25.40;65.00;;;;;;4148047;28;20046;-65
2022/05/14 12:44:44;;;;;;;0.00;0.00;;;25.60;64.90;;;;;;4135474;28;20077;-66
2022/05/14 12:47:08;;;;;;;0.00;0.00;;;25.70;63.90;;;;;;4165054;28;20111;-65
2022/05/14 12:49:38;;;;;;;0.00;0.00;;;25.70;62.90;;;;;;4162705;28;20532;-65
2022/05/14 12:52:08;;;;;;;0.00;0.00;;;25.80;63.20;;;;;;4151424;28;20057;-64
2022/05/14 12:54:33;;;;;;;0.00;0.00;;;25.80;62.70;;;;;;4151261;28;20050;-66
2022/05/14 12:57:04;;;;;;;0.00;0.00;;;25.90;61.90;;;;;;4151426;28;20471;-64
2022/05/14 12:59:27;;;;;;;0.00;0.00;;;25.90;61.20;;;;;;4151424;28;20128;-64
2022/05/14 13:01:55;;;;;;;0.00;0.00;;;25.90;60.80;;;;;;4151189;28;20428;-63
2022/05/14 13:04:20;;;;;;;0.00;0.00;;;25.80;61.30;;;;;;4151121;28;20034;-64
2022/05/14 13:06:46;;;;;;;0.00;0.00;;;25.90;61.40;;;;;;4150961;28;20038;-65
2022/05/14 13:09:20;;;;;;;0.00;0.00;;;26.00;61.30;;;;;;4151034;28;20096;-64
2022/05/14 13:11:47;;;;;;;0.00;0.00;;;26.00;61.10;;;;;;4150943;28;20042;-65